This is the latest recevied weather packets stored in our database for station/object KC8YYF. If no packets are shown the sender has not sent any weather packets the latest 10 day(s).
| Time | Temp. | Humidity | Pressure | Rain* | Wind** | Luminosity | Snow |
|---|---|---|---|---|---|---|---|
| 1777402466 | 22.22° C | 63% | 1013.8 hPa | 0 mm | - | 105 W/m² | - |
| 1777402164 | 21.67° C | 65% | 1013.7 hPa | 0 mm | - | 99 W/m² | - |
| 1777401859 | 22.22° C | 66% | 1014.1 hPa | 0 mm | - | 81 W/m² | - |
| 1777401558 | 21.67° C | 66% | 1014 hPa | 0 mm | - | 524 W/m² | - |
| 1777401254 | 21.67° C | 68% | 1014.2 hPa | 0 mm | - | 84 W/m² | - |
| 1777400950 | 21.67° C | 65% | 1014.1 hPa | 0 mm | - | 155 W/m² | - |
| 1777400646 | 22.22° C | 66% | 1014.1 hPa | 0 mm | - | 488 W/m² | - |
| 1777400344 | 21.67° C | 65% | 1014.3 hPa | 0 mm | - | 103 W/m² | - |
| 1777400039 | 22.22° C | 68% | 1014.3 hPa | 0 mm | - | 654 W/m² | - |
| 1777399737 | 21.11° C | 71% | 1014.3 hPa | 0 mm | - | 116 W/m² | - |
| 1777399433 | 22.22° C | 70% | 1014.1 hPa | 0 mm | - | 404 W/m² | - |
| 1777399131 | 21.67° C | 72% | 1014.3 hPa | 0 mm | - | 161 W/m² | - |
| 1777398828 | 20.56° C | 72% | 1014 hPa | 0 mm | - | 100 W/m² | - |
| 1777398525 | 21.11° C | 70% | 1014.1 hPa | 0 mm | - | 98 W/m² | - |
| 1777398221 | 21.67° C | 71% | 1014 hPa | 0 mm | - | 131 W/m² | - |
| 1777397919 | 22.22° C | 70% | 1014.2 hPa | 0 mm | - | 664 W/m² | - |
| 1777397614 | 21.67° C | 72% | 1014.2 hPa | 0 mm | - | 641 W/m² | - |
| 1777397311 | 21.11° C | 73% | 1014.2 hPa | 0 mm | - | 699 W/m² | - |
| 1777397007 | 21.11° C | 77% | 1014.4 hPa | 0 mm | - | 659 W/m² | - |
| 1777396704 | 19.44° C | 79% | 1014.5 hPa | 0 mm | - | 113 W/m² | - |
| 1777396401 | 19.44° C | 78% | 1014.4 hPa | 0 mm | - | 568 W/m² | - |
| 1777396097 | 18.89° C | 80% | 1014.5 hPa | 0 mm | - | 98 W/m² | - |
| 1777395793 | 19.44° C | 81% | 1014.5 hPa | 0 mm | - | 71 W/m² | - |
| 1777395489 | 20° C | 81% | 1014.5 hPa | 0 mm | - | 659 W/m² | - |
| 1777395186 | 19.44° C | 84% | 1014.4 hPa | 0 mm | - | 765 W/m² | - |
* Rain latest hour (hover to see other rain measurements)
** Current wind speed in m/s (hover to see current wind gust speed)